createdAt,value
2023-03-14T00:00:15.506Z,3.47
2023-03-14T00:01:21.455Z,3.33
2023-03-14T00:02:25.039Z,3.33
2023-03-14T00:03:30.909Z,3.25
2023-03-14T00:04:33.190Z,3.22
2023-03-14T00:05:36.671Z,3.47
2023-03-14T00:06:40.995Z,3.00
2023-03-14T00:07:44.978Z,2.92
2023-03-14T00:08:47.457Z,3.10
2023-03-14T00:09:51.014Z,2.80
2023-03-14T00:10:53.296Z,2.45
2023-03-14T00:11:57.046Z,3.13
2023-03-14T00:12:59.832Z,2.85
2023-03-14T00:14:03.988Z,2.95
2023-03-14T00:15:08.184Z,3.10
2023-03-14T00:16:14.167Z,3.07
2023-03-14T00:17:16.822Z,2.58
2023-03-14T00:18:21.299Z,2.70
2023-03-14T00:19:23.617Z,2.80
2023-03-14T00:20:27.128Z,2.83
2023-03-14T00:21:29.804Z,2.67
2023-03-14T00:22:34.696Z,2.42
2023-03-14T00:23:38.919Z,3.30
2023-03-14T00:24:42.644Z,3.05
2023-03-14T00:25:44.902Z,3.33
2023-03-14T00:26:49.077Z,3.37
2023-03-14T00:27:52.578Z,2.33
2023-03-14T00:28:56.737Z,2.50
2023-03-14T00:29:59.951Z,3.10
2023-03-14T00:31:05.284Z,2.90
2023-03-14T00:32:07.603Z,2.70
2023-03-14T00:33:14.434Z,3.03
2023-03-14T00:34:16.871Z,3.40
2023-03-14T00:35:20.396Z,3.83
2023-03-14T00:36:23.317Z,2.80
2023-03-14T00:37:27.084Z,3.00
2023-03-14T00:38:31.778Z,3.35
2023-03-14T00:39:35.071Z,3.05
2023-03-14T00:40:40.586Z,3.70
2023-03-14T00:41:43.925Z,3.17
2023-03-14T00:42:46.269Z,3.22
2023-03-14T00:43:49.674Z,3.45
2023-03-14T00:44:51.931Z,2.92
2023-03-14T00:45:55.574Z,2.78
2023-03-14T00:46:58.334Z,3.08
2023-03-14T00:48:01.782Z,2.67
2023-03-14T00:49:04.326Z,2.63
2023-03-14T00:50:09.024Z,2.95
2023-03-14T00:51:12.307Z,3.42
2023-03-14T00:52:15.738Z,2.80
2023-03-14T00:53:18.892Z,2.72
2023-03-14T00:54:23.722Z,3.60
2023-03-14T00:55:26.296Z,4.38
2023-03-14T00:56:29.790Z,3.08
2023-03-14T00:57:32.136Z,3.00
2023-03-14T00:58:35.445Z,4.63
2023-03-14T00:59:38.350Z,4.03
2023-03-14T01:00:42.152Z,4.05
2023-03-14T01:01:44.936Z,3.78
2023-03-14T01:02:49.532Z,4.50
2023-03-14T01:03:53.035Z,3.80
2023-03-14T01:04:56.463Z,3.78
2023-03-14T01:06:08.649Z,3.50
2023-03-14T01:07:12.138Z,4.53
2023-03-14T01:08:14.434Z,4.32
2023-03-14T01:09:18.906Z,5.10
2023-03-14T01:10:22.763Z,4.97
2023-03-14T01:11:27.847Z,4.35
2023-03-14T01:12:30.770Z,4.88
2023-03-14T01:13:34.326Z,4.43
2023-03-14T01:14:37.079Z,4.25
2023-03-14T01:15:40.405Z,3.70
2023-03-14T01:16:42.738Z,3.40
2023-03-14T01:17:46.008Z,4.15
2023-03-14T01:18:48.735Z,4.45
2023-03-14T01:19:52.245Z,3.87
2023-03-14T01:20:54.562Z,4.47
2023-03-14T01:21:58.130Z,3.92
2023-03-14T01:28:26.341Z,3.10
2023-03-14T01:29:29.609Z,2.20
2023-03-14T01:30:31.891Z,2.30
2023-03-14T01:31:35.567Z,1.95
2023-03-14T01:32:38.807Z,3.03
2023-03-14T01:39:07.157Z,2.67
2023-03-14T01:40:12.541Z,3.03
2023-03-14T01:41:18.405Z,4.07
2023-03-14T01:42:20.784Z,2.97
2023-03-14T01:43:26.570Z,3.45
2023-03-14T01:44:29.351Z,3.53
2023-03-14T01:46:21.339Z,3.50
2023-03-14T01:47:25.876Z,2.80
2023-03-14T01:48:34.056Z,2.70
2023-03-14T01:49:38.715Z,2.70
2023-03-14T01:50:41.281Z,3.25
2023-03-14T01:51:50.699Z,3.05
2023-03-14T01:52:54.011Z,2.92
2023-03-14T01:54:04.864Z,3.40
2023-03-14T01:55:12.088Z,2.67
2023-03-14T01:56:17.113Z,2.33
2023-03-14T01:57:24.914Z,2.20
2023-03-14T01:58:32.107Z,2.30
2023-03-14T01:59:36.604Z,2.67
2023-03-14T02:00:39.903Z,3.33
2023-03-14T02:01:46.863Z,2.45
2023-03-14T02:02:51.706Z,3.10
2023-03-14T02:03:57.546Z,2.65
2023-03-14T02:05:01.828Z,3.42
2023-03-14T02:06:08.880Z,2.72
2023-03-14T02:07:17.280Z,3.10
2023-03-14T02:08:21.279Z,2.92
2023-03-14T02:09:24.849Z,2.97
2023-03-14T02:10:30.855Z,3.20
2023-03-14T02:11:34.983Z,3.22
2023-03-14T02:12:38.170Z,3.15
2023-03-14T02:13:42.897Z,2.50
2023-03-14T02:14:49.132Z,2.72
2023-03-14T02:15:51.806Z,3.05
2023-03-14T02:16:55.609Z,3.20
2023-03-14T02:18:00.259Z,2.10
2023-03-14T02:19:04.056Z,2.42
2023-03-14T02:20:19.701Z,2.55
2023-03-14T02:21:26.546Z,2.47
2023-03-14T02:22:29.904Z,2.30
2023-03-14T02:23:40.967Z,2.53
2023-03-14T02:24:53.759Z,3.03
2023-03-14T02:26:02.781Z,2.92
2023-03-14T02:27:10.710Z,2.47
2023-03-14T02:28:15.022Z,3.05
2023-03-14T02:29:17.520Z,3.15
2023-03-14T02:30:23.455Z,1.88
2023-03-14T02:31:25.942Z,2.30
2023-03-14T02:32:31.891Z,2.17
2023-03-14T02:33:34.154Z,4.00
2023-03-14T02:34:38.240Z,2.15
2023-03-14T02:35:43.825Z,2.28
2023-03-14T02:36:47.389Z,2.72
2023-03-14T02:37:54.558Z,1.95
2023-03-14T02:39:07.415Z,2.53
2023-03-14T02:40:11.028Z,2.22
2023-03-14T02:41:14.318Z,3.17
2023-03-14T02:42:18.696Z,2.30
2023-03-14T02:43:22.766Z,2.60
2023-03-14T02:44:25.296Z,2.63
2023-03-14T02:45:40.081Z,2.83
2023-03-14T02:46:43.295Z,2.65
2023-03-14T02:47:51.468Z,2.55
2023-03-14T02:48:59.447Z,2.10
2023-03-14T02:50:05.664Z,2.50
2023-03-14T02:51:10.279Z,2.85
2023-03-14T02:52:12.515Z,2.33
2023-03-14T02:53:19.930Z,2.10
2023-03-14T02:54:22.615Z,2.77
2023-03-14T02:55:27.672Z,2.35
2023-03-14T02:56:31.043Z,2.28
2023-03-14T02:57:34.710Z,2.90
2023-03-14T02:58:38.573Z,2.35
2023-03-14T02:59:40.922Z,2.00
2023-03-14T03:00:44.467Z,2.72
2023-03-14T03:01:46.823Z,2.75
2023-03-14T03:02:50.171Z,2.28
2023-03-14T03:03:52.348Z,1.98
2023-03-14T03:04:55.643Z,2.37
2023-03-14T03:05:58.261Z,2.30
2023-03-14T03:07:01.565Z,2.90
2023-03-14T03:08:04.081Z,2.33
2023-03-14T03:09:07.457Z,2.15
2023-03-14T03:10:11.143Z,2.55
2023-03-14T03:11:14.372Z,2.15
2023-03-14T03:12:16.766Z,2.38
2023-03-14T03:13:22.267Z,2.63
2023-03-14T03:14:25.805Z,2.10
2023-03-14T03:15:29.343Z,2.87
2023-03-14T03:16:32.732Z,2.40
2023-03-14T03:17:35.025Z,2.35
2023-03-14T03:18:38.363Z,2.05
2023-03-14T03:19:40.651Z,1.98
2023-03-14T03:20:44.051Z,1.95
2023-03-14T03:21:46.355Z,2.17
2023-03-14T03:22:50.937Z,2.35
2023-03-14T03:23:54.547Z,2.60
2023-03-14T03:24:56.779Z,2.45
2023-03-14T03:26:00.306Z,2.30
2023-03-14T03:27:02.519Z,2.60
2023-03-14T03:28:08.962Z,2.53
2023-03-14T03:29:12.698Z,2.20
2023-03-14T03:30:17.230Z,2.70
2023-03-14T03:31:20.793Z,2.50
2023-03-14T03:32:23.309Z,2.03
2023-03-14T03:33:26.749Z,2.33
2023-03-14T03:34:29.426Z,2.33
2023-03-14T03:35:33.044Z,2.17
2023-03-14T03:36:35.675Z,2.03
2023-03-14T03:37:40.139Z,1.67
2023-03-14T03:38:42.670Z,2.15
2023-03-14T03:39:46.292Z,2.03
2023-03-14T03:40:49.093Z,1.95
2023-03-14T03:41:52.830Z,1.63
2023-03-14T03:42:55.452Z,1.70
2023-03-14T03:43:59.589Z,2.90
2023-03-14T03:45:04.364Z,1.63
2023-03-14T03:46:08.905Z,2.15
2023-03-14T03:47:11.367Z,2.50
2023-03-14T03:48:14.761Z,2.33
2023-03-14T03:49:17.035Z,2.15
2023-03-14T03:50:20.511Z,2.10
2023-03-14T03:51:22.899Z,2.17
2023-03-14T03:52:26.353Z,2.70
2023-03-14T03:53:33.514Z,2.22
2023-03-14T03:54:37.669Z,2.97
2023-03-14T03:55:43.480Z,2.53
2023-03-14T03:56:46.719Z,2.50
2023-03-14T03:57:53.663Z,1.87
2023-03-14T03:58:55.923Z,1.98
2023-03-14T03:59:59.168Z,1.75
2023-03-14T04:01:03.076Z,2.03
2023-03-14T04:02:06.724Z,2.50
2023-03-14T04:03:09.522Z,1.95
2023-03-14T04:04:12.966Z,2.38
2023-03-14T04:05:15.780Z,1.58
2023-03-14T04:06:19.219Z,1.80
2023-03-14T04:07:21.481Z,2.83
2023-03-14T04:08:24.846Z,2.67
2023-03-14T04:09:27.525Z,2.38
2023-03-14T04:10:30.894Z,1.80
2023-03-14T04:11:33.359Z,2.65
2023-03-14T04:12:36.645Z,2.00
2023-03-14T04:13:39.433Z,2.20
2023-03-14T04:14:43.312Z,1.92
2023-03-14T04:15:45.673Z,2.13
2023-03-14T04:16:50.789Z,2.47
2023-03-14T04:17:58.167Z,1.90
2023-03-14T04:19:01.529Z,2.43
2023-03-14T04:20:05.231Z,2.00
2023-03-14T04:21:08.927Z,1.92
2023-03-14T04:22:11.342Z,2.20
2023-03-14T04:23:14.640Z,2.00
2023-03-14T04:24:17.030Z,1.90
2023-03-14T04:25:21.165Z,1.88
2023-03-14T04:26:23.499Z,2.15
2023-03-14T04:27:26.774Z,1.95
2023-03-14T04:28:29.176Z,1.77
2023-03-14T04:29:32.511Z,2.53
2023-03-14T04:30:34.805Z,1.70
2023-03-14T04:31:38.180Z,2.00
2023-03-14T04:32:42.021Z,1.95
2023-03-14T04:33:46.161Z,1.85
2023-03-14T04:34:48.581Z,2.00
2023-03-14T04:35:55.469Z,1.95
2023-03-14T04:36:57.707Z,2.15
2023-03-14T04:38:01.299Z,2.30
2023-03-14T04:39:05.156Z,1.95
2023-03-14T04:40:10.059Z,2.33
2023-03-14T04:41:12.338Z,2.50
2023-03-14T04:42:15.614Z,1.98
2023-03-14T04:43:17.799Z,1.70
2023-03-14T04:44:21.149Z,2.13
2023-03-14T04:45:23.343Z,2.45
2023-03-14T04:46:26.718Z,2.70
2023-03-14T04:47:29.638Z,2.20
2023-03-14T04:48:34.378Z,1.90
2023-03-14T04:49:36.601Z,2.60
2023-03-14T04:50:40.304Z,2.13
2023-03-14T04:51:42.638Z,2.00
2023-03-14T04:52:45.984Z,2.22
2023-03-14T04:53:48.196Z,2.13
2023-03-14T04:54:51.413Z,2.20
2023-03-14T04:55:55.148Z,2.17
2023-03-14T04:56:58.425Z,2.28
2023-03-14T04:58:00.962Z,2.13
2023-03-14T04:59:04.247Z,1.75
2023-03-14T05:00:08.419Z,1.85
2023-03-14T05:01:11.617Z,2.00
2023-03-14T05:02:13.856Z,2.20
2023-03-14T05:03:17.623Z,1.88
2023-03-14T05:04:21.481Z,2.33
2023-03-14T05:05:26.128Z,2.08
2023-03-14T05:06:28.684Z,1.85
2023-03-14T05:07:32.235Z,2.03
2023-03-14T05:08:34.529Z,1.63
2023-03-14T05:09:37.910Z,1.98
2023-03-14T05:10:40.191Z,2.42
2023-03-14T05:11:43.747Z,1.80
2023-03-14T05:12:46.013Z,2.60
2023-03-14T05:13:49.312Z,1.83
2023-03-14T05:14:51.560Z,2.28
2023-03-14T05:15:56.407Z,2.13
2023-03-14T05:16:58.753Z,2.10
2023-03-14T05:18:02.042Z,2.20
2023-03-14T05:19:04.816Z,3.05
2023-03-14T05:20:13.856Z,3.10
2023-03-14T05:21:16.181Z,2.53
2023-03-14T05:22:19.705Z,2.67
2023-03-14T05:23:21.941Z,2.47
2023-03-14T05:24:25.260Z,2.42
2023-03-14T05:25:27.451Z,1.98
2023-03-14T05:26:31.054Z,2.50
2023-03-14T05:27:33.232Z,2.20
2023-03-14T05:28:36.524Z,2.53
2023-03-14T05:29:38.770Z,1.85
2023-03-14T05:30:42.402Z,1.83
2023-03-14T05:31:44.720Z,2.10
2023-03-14T05:32:48.084Z,1.90
2023-03-14T05:33:50.390Z,2.22
2023-03-14T05:34:53.730Z,2.13
2023-03-14T05:35:57.433Z,2.17
2023-03-14T05:37:00.784Z,2.50
2023-03-14T05:38:03.225Z,2.13
2023-03-14T05:39:06.396Z,2.10
2023-03-14T05:40:09.986Z,2.67
2023-03-14T05:41:13.251Z,2.30
2023-03-14T05:42:15.483Z,2.00
2023-03-14T05:43:18.725Z,2.23
2023-03-14T05:44:20.932Z,3.13
2023-03-14T05:45:24.207Z,1.88
2023-03-14T05:46:26.747Z,3.08
2023-03-14T05:47:30.231Z,2.40
2023-03-14T05:48:32.557Z,2.13
2023-03-14T05:49:35.873Z,2.22
2023-03-14T05:50:38.199Z,2.22
2023-03-14T05:51:42.895Z,2.30
2023-03-14T05:52:45.182Z,2.35
2023-03-14T05:53:48.383Z,1.93
2023-03-14T05:54:50.622Z,1.88
2023-03-14T05:55:56.821Z,2.25
2023-03-14T05:57:00.179Z,1.73
2023-03-14T05:58:03.445Z,1.67
2023-03-14T05:59:05.821Z,2.03
2023-03-14T06:00:10.441Z,1.90
2023-03-14T06:01:13.811Z,2.65
2023-03-14T06:02:16.118Z,2.20
2023-03-14T06:03:19.721Z,2.17
2023-03-14T06:04:22.087Z,1.77
2023-03-14T06:05:25.541Z,2.53
2023-03-14T06:06:27.829Z,1.70
2023-03-14T06:07:32.508Z,2.53
2023-03-14T06:08:35.622Z,2.08
2023-03-14T06:09:40.608Z,2.20
2023-03-14T06:10:43.007Z,2.15
2023-03-14T06:11:47.279Z,2.42
2023-03-14T06:12:49.840Z,2.13
2023-03-14T06:13:53.618Z,1.98
2023-03-14T06:14:55.913Z,1.67
2023-03-14T06:15:59.332Z,1.88
2023-03-14T06:17:01.840Z,2.25
2023-03-14T06:18:05.205Z,2.00
2023-03-14T06:19:07.440Z,2.00
2023-03-14T06:20:12.011Z,1.80
2023-03-14T06:21:14.326Z,2.55
2023-03-14T06:22:17.615Z,2.13
2023-03-14T06:23:21.567Z,1.73
2023-03-14T06:24:24.793Z,2.08
2023-03-14T06:25:27.101Z,2.07
2023-03-14T06:26:30.762Z,2.25
2023-03-14T06:27:33.084Z,3.78
2023-03-14T06:28:36.318Z,2.20
2023-03-14T06:29:38.749Z,2.58
2023-03-14T06:30:42.848Z,3.05
2023-03-14T06:31:45.134Z,1.90
2023-03-14T06:32:48.561Z,2.38
2023-03-14T06:33:50.776Z,2.80
2023-03-14T06:34:54.275Z,2.40
2023-03-14T06:35:56.586Z,1.90
2023-03-14T06:37:00.119Z,1.88
2023-03-14T06:38:13.946Z,2.70
2023-03-14T06:39:18.040Z,2.70
2023-03-14T06:40:21.784Z,2.47
2023-03-14T06:41:24.941Z,2.60
2023-03-14T06:42:28.584Z,1.90
2023-03-14T06:43:31.067Z,1.90
2023-03-14T06:44:34.562Z,2.17
2023-03-14T06:45:36.856Z,1.85
2023-03-14T06:46:40.332Z,2.50
2023-03-14T06:47:42.543Z,1.67
2023-03-14T06:48:45.929Z,2.10
2023-03-14T06:49:50.430Z,2.45
2023-03-14T06:50:53.932Z,2.33
2023-03-14T06:51:57.482Z,2.70
2023-03-14T06:52:59.868Z,2.15
2023-03-14T06:54:03.685Z,2.22
2023-03-14T06:55:08.710Z,2.20
2023-03-14T06:56:12.357Z,2.38
2023-03-14T06:57:15.700Z,2.17
2023-03-14T06:58:18.260Z,2.70
2023-03-14T06:59:21.508Z,2.40
2023-03-14T07:00:24.349Z,2.30
2023-03-14T07:01:29.368Z,2.35
2023-03-14T07:02:42.312Z,1.92
2023-03-14T07:03:45.770Z,1.80
2023-03-14T07:04:48.032Z,1.95
2023-03-14T07:05:51.903Z,2.22
2023-03-14T07:06:54.302Z,2.30
2023-03-14T07:07:57.582Z,2.10
2023-03-14T07:08:59.859Z,2.67
2023-03-14T07:10:03.344Z,4.00
2023-03-14T07:11:07.695Z,4.32
2023-03-14T07:12:10.892Z,3.40
2023-03-14T07:13:14.279Z,2.83
2023-03-14T07:14:16.649Z,3.28
2023-03-14T07:15:20.599Z,2.85
2023-03-14T07:16:22.818Z,2.38
2023-03-14T07:17:26.118Z,2.85
2023-03-14T07:18:28.713Z,2.90
2023-03-14T07:19:31.897Z,2.97
2023-03-14T07:20:35.377Z,2.75
2023-03-14T07:21:38.855Z,3.28
2023-03-14T07:22:42.134Z,2.30
2023-03-14T07:23:44.565Z,2.67
2023-03-14T07:24:47.791Z,2.70
2023-03-14T07:25:51.804Z,1.80
2023-03-14T07:26:55.706Z,2.40
2023-03-14T07:27:59.070Z,1.77
2023-03-14T07:29:01.406Z,2.70
2023-03-14T07:30:05.205Z,2.33
2023-03-14T07:31:09.236Z,3.00
2023-03-14T07:32:15.758Z,3.45
2023-03-14T07:33:18.167Z,7.03
2023-03-14T07:34:21.679Z,3.45
2023-03-14T07:35:23.962Z,5.05
2023-03-14T07:36:28.953Z,4.88
2023-03-14T07:37:31.330Z,4.32
2023-03-14T07:38:34.679Z,3.38
2023-03-14T07:39:37.367Z,3.27
2023-03-14T07:40:40.644Z,2.90
2023-03-14T07:41:43.034Z,2.95
2023-03-14T07:42:47.875Z,3.50
2023-03-14T07:43:50.165Z,3.42
2023-03-14T07:44:53.793Z,4.28
2023-03-14T07:45:59.537Z,3.80
2023-03-14T07:47:02.974Z,3.30
2023-03-14T07:48:05.459Z,3.35
2023-03-14T07:49:08.672Z,3.17
2023-03-14T07:50:11.926Z,3.10
2023-03-14T07:51:15.207Z,6.30
2023-03-14T07:52:17.440Z,6.78
2023-03-14T07:53:20.899Z,6.13
2023-03-14T07:54:23.881Z,3.83
2023-03-14T07:55:27.099Z,3.40
2023-03-14T07:56:29.519Z,3.50
2023-03-14T07:57:32.889Z,4.22
2023-03-14T07:58:38.081Z,3.60
2023-03-14T07:59:41.736Z,2.97
2023-03-14T08:00:44.956Z,2.93
2023-03-14T08:01:48.262Z,3.08
2023-03-14T08:02:50.592Z,2.03
2023-03-14T08:03:53.991Z,4.35
2023-03-14T08:04:56.366Z,3.88
2023-03-14T08:05:59.758Z,3.63
2023-03-14T08:07:01.976Z,4.18
2023-03-14T08:08:05.779Z,4.80
2023-03-14T08:09:10.308Z,4.38
2023-03-14T08:10:17.467Z,3.95
2023-03-14T08:11:20.768Z,4.60
2023-03-14T08:12:23.387Z,3.40
2023-03-14T08:13:26.743Z,3.80
2023-03-14T08:14:32.027Z,3.83
2023-03-14T08:15:34.651Z,4.03
2023-03-14T08:16:38.479Z,2.97
2023-03-14T08:17:40.694Z,4.07
2023-03-14T08:18:44.217Z,4.10
2023-03-14T08:19:46.541Z,3.05
2023-03-14T08:20:49.928Z,3.83
2023-03-14T08:21:53.273Z,3.30
2023-03-14T08:22:58.018Z,1.90
2023-03-14T08:24:01.983Z,2.85
2023-03-14T08:25:04.850Z,2.33
2023-03-14T08:26:08.993Z,2.40
2023-03-14T08:27:12.302Z,2.97
2023-03-14T08:28:15.583Z,2.53
2023-03-14T08:29:18.866Z,3.30
2023-03-14T08:30:25.113Z,3.15
2023-03-14T08:31:28.595Z,2.00
2023-03-14T08:32:31.784Z,2.40
2023-03-14T08:33:35.050Z,2.75
2023-03-14T08:34:37.550Z,3.42
2023-03-14T08:35:40.892Z,5.22
2023-03-14T08:36:44.486Z,4.63
2023-03-14T08:37:47.915Z,4.13
2023-03-14T08:38:51.258Z,3.67
2023-03-14T08:39:53.566Z,3.83
2023-03-14T08:41:00.599Z,3.33
2023-03-14T08:42:02.768Z,2.88
2023-03-14T08:43:06.381Z,1.90
2023-03-14T08:44:09.129Z,2.25
2023-03-14T08:45:14.548Z,1.50
2023-03-14T08:46:19.420Z,2.40
2023-03-14T08:47:22.781Z,2.20
2023-03-14T08:48:26.432Z,1.92
2023-03-14T08:49:29.927Z,1.60
2023-03-14T08:50:33.625Z,2.08
2023-03-14T08:51:36.135Z,1.70
2023-03-14T08:52:41.402Z,2.33
2023-03-14T08:53:43.877Z,2.03
2023-03-14T08:54:47.279Z,2.08
2023-03-14T08:55:55.975Z,1.98
2023-03-14T08:56:59.885Z,1.52
2023-03-14T08:58:02.313Z,2.33
2023-03-14T08:59:06.097Z,2.00
2023-03-14T09:00:12.652Z,1.83
2023-03-14T09:01:16.063Z,1.77
2023-03-14T09:02:19.697Z,1.67
2023-03-14T09:03:24.244Z,1.73
2023-03-14T09:04:26.664Z,2.20
2023-03-14T09:05:30.518Z,2.53
2023-03-14T09:06:33.802Z,2.30
2023-03-14T09:07:37.279Z,2.42
2023-03-14T09:08:40.569Z,2.65
2023-03-14T09:09:42.999Z,2.78
2023-03-14T09:10:46.764Z,2.47
2023-03-14T09:11:48.920Z,1.95
2023-03-14T09:12:52.240Z,2.00
2023-03-14T09:13:55.861Z,1.73
2023-03-14T09:14:58.071Z,1.73
2023-03-14T09:16:01.857Z,1.83
2023-03-14T09:17:05.262Z,2.00
2023-03-14T09:18:09.936Z,2.00
2023-03-14T09:19:13.226Z,2.10
2023-03-14T09:20:16.475Z,1.75
2023-03-14T09:21:18.802Z,1.95
2023-03-14T09:22:22.693Z,1.67
2023-03-14T09:23:25.190Z,2.03
2023-03-14T09:24:28.912Z,1.98
2023-03-14T09:25:32.276Z,2.60
2023-03-14T09:26:34.605Z,1.17
2023-03-14T09:27:38.008Z,2.00
2023-03-14T09:28:41.509Z,1.30
2023-03-14T09:29:47.135Z,2.30
2023-03-14T09:30:50.926Z,1.80
2023-03-14T09:31:54.596Z,1.85
2023-03-14T09:32:58.699Z,1.80
2023-03-14T09:34:03.878Z,2.03
2023-03-14T09:35:07.571Z,1.88
2023-03-14T09:36:10.670Z,1.77
2023-03-14T09:37:14.360Z,2.00
2023-03-14T09:38:18.400Z,1.92
2023-03-14T09:39:20.510Z,1.80
2023-03-14T09:40:24.941Z,2.50
2023-03-14T09:41:31.086Z,2.10
2023-03-14T09:42:34.397Z,2.30
2023-03-14T09:43:37.571Z,2.20
2023-03-14T09:44:48.532Z,1.73
2023-03-14T09:45:53.306Z,1.25
2023-03-14T09:46:59.431Z,1.97
2023-03-14T09:48:05.055Z,1.85
2023-03-14T09:49:16.983Z,2.00
2023-03-14T09:50:21.534Z,1.73
2023-03-14T09:51:25.179Z,1.83
2023-03-14T09:52:33.561Z,1.85
2023-03-14T09:53:41.104Z,1.85
2023-03-14T09:54:48.801Z,1.90
2023-03-14T09:55:52.856Z,1.80
2023-03-14T09:56:57.040Z,1.58
2023-03-14T09:58:04.421Z,1.90
2023-03-14T09:59:14.538Z,1.40
2023-03-14T10:00:21.191Z,2.17
2023-03-14T10:01:28.991Z,1.50
2023-03-14T10:02:37.217Z,2.13
2023-03-14T10:03:39.699Z,1.92
2023-03-14T10:04:46.329Z,2.08
2023-03-14T10:05:49.810Z,1.77
2023-03-14T10:06:52.448Z,2.20
2023-03-14T10:07:56.024Z,1.77
2023-03-14T10:08:59.675Z,1.90
2023-03-14T10:10:02.119Z,1.80
2023-03-14T10:11:05.808Z,1.98
2023-03-14T10:12:11.048Z,1.70
2023-03-14T10:13:17.493Z,1.83
2023-03-14T10:14:33.283Z,1.55
2023-03-14T10:15:37.057Z,1.70
2023-03-14T10:16:46.757Z,1.50
2023-03-14T10:17:51.255Z,1.95
2023-03-14T10:18:54.671Z,1.70
2023-03-14T10:20:00.753Z,1.97
2023-03-14T10:21:08.054Z,1.85
2023-03-14T10:22:17.438Z,1.70
2023-03-14T10:23:27.053Z,1.73
2023-03-14T10:24:33.652Z,1.90
2023-03-14T10:25:39.714Z,1.50
2023-03-14T10:26:42.079Z,1.77
2023-03-14T10:27:45.747Z,1.90
2023-03-14T10:28:49.275Z,1.80
2023-03-14T10:29:59.585Z,1.50
2023-03-14T10:31:02.342Z,2.23
2023-03-14T10:32:09.035Z,1.58
2023-03-14T10:33:13.228Z,1.98
2023-03-14T10:34:23.075Z,2.20
2023-03-14T10:35:27.912Z,1.80
2023-03-14T10:36:31.993Z,2.17
2023-03-14T10:37:35.302Z,2.20
2023-03-14T10:38:39.535Z,1.40
2023-03-14T10:39:46.589Z,1.80
2023-03-14T10:40:54.002Z,2.13
2023-03-14T10:42:05.079Z,2.00
2023-03-14T10:43:15.862Z,1.80
2023-03-14T10:44:23.682Z,1.80
2023-03-14T10:45:33.786Z,1.85
2023-03-14T10:46:37.496Z,2.15
2023-03-14T10:47:51.569Z,1.88
2023-03-14T10:48:55.244Z,1.38
2023-03-14T10:49:59.533Z,1.90
2023-03-14T10:51:11.394Z,1.85
2023-03-14T10:52:50.818Z,3.22
2023-03-14T10:53:49.620Z,2.07
2023-03-14T10:54:57.960Z,1.75
2023-03-14T10:56:05.511Z,1.52
2023-03-14T10:57:09.572Z,1.67
2023-03-14T10:58:26.958Z,2.10
2023-03-14T10:59:36.424Z,1.75
2023-03-14T11:00:39.737Z,1.73
2023-03-14T11:01:48.058Z,1.63
2023-03-14T11:03:08.707Z,2.10
2023-03-14T11:04:24.115Z,1.70
2023-03-14T11:05:34.278Z,1.80
2023-03-14T11:06:46.866Z,1.65
2023-03-14T11:07:50.326Z,2.08
2023-03-14T11:08:59.798Z,1.90
2023-03-14T11:10:10.829Z,1.77
2023-03-14T11:11:20.329Z,1.75
2023-03-14T11:12:37.321Z,1.75
2023-03-14T11:13:49.419Z,2.00
2023-03-14T11:14:56.505Z,2.30
2023-03-14T11:16:06.238Z,2.38
2023-03-14T11:17:18.198Z,1.80
2023-03-14T11:18:48.852Z,1.70
2023-03-14T11:20:02.222Z,2.10
2023-03-14T11:21:14.194Z,2.40
2023-03-14T11:22:26.455Z,1.73
2023-03-14T11:23:40.268Z,2.00
2023-03-14T11:25:07.324Z,2.13
2023-03-14T11:26:23.040Z,2.03
2023-03-14T11:27:36.040Z,2.22
2023-03-14T11:28:41.338Z,1.70
2023-03-14T11:29:51.599Z,1.90
2023-03-14T11:30:56.682Z,2.08
2023-03-14T11:32:02.254Z,2.40
2023-03-14T11:33:16.222Z,2.83
2023-03-14T11:34:29.705Z,1.83
2023-03-14T11:35:37.713Z,1.95
2023-03-14T11:36:43.583Z,2.30
2023-03-14T11:37:54.650Z,2.15
2023-03-14T11:39:00.465Z,2.55
2023-03-14T11:40:15.319Z,1.90
2023-03-14T11:41:22.636Z,2.10
2023-03-14T11:42:26.877Z,2.17
2023-03-14T11:43:35.980Z,1.95
2023-03-14T11:44:41.388Z,2.28
2023-03-14T11:45:45.911Z,2.13
2023-03-14T11:46:52.293Z,1.92
2023-03-14T11:48:18.160Z,2.03
2023-03-14T11:49:32.614Z,2.53
2023-03-14T11:50:36.393Z,2.40
2023-03-14T11:51:43.711Z,2.17
2023-03-14T11:52:53.884Z,2.07
2023-03-14T11:54:04.447Z,2.08
2023-03-14T11:55:13.295Z,1.83
2023-03-14T11:56:24.140Z,2.25
2023-03-14T11:57:27.519Z,1.73
2023-03-14T11:58:35.288Z,2.10
2023-03-14T11:59:47.732Z,1.77
2023-03-14T12:00:53.782Z,2.20
2023-03-14T12:02:01.512Z,1.40
2023-03-14T12:03:14.625Z,1.70
2023-03-14T12:04:27.440Z,1.47
2023-03-14T12:05:48.838Z,2.05
2023-03-14T12:06:52.570Z,1.73
2023-03-14T12:08:21.519Z,2.30
2023-03-14T12:09:25.245Z,1.75
2023-03-14T12:10:31.714Z,1.98
2023-03-14T12:11:40.949Z,2.17
2023-03-14T12:12:43.656Z,2.22
2023-03-14T12:13:51.417Z,2.33
2023-03-14T12:14:59.001Z,2.88
2023-03-14T12:16:07.217Z,2.97
2023-03-14T12:17:22.271Z,3.90
2023-03-14T12:18:29.540Z,3.25
2023-03-14T12:19:39.378Z,4.25
2023-03-14T12:20:42.677Z,4.38
2023-03-14T12:21:50.856Z,4.32
2023-03-14T12:22:56.264Z,4.15
2023-03-14T12:24:01.153Z,4.53
2023-03-14T12:25:17.716Z,4.13
2023-03-14T12:26:24.194Z,4.40
2023-03-14T12:27:47.709Z,4.83
2023-03-14T12:28:54.198Z,4.45
2023-03-14T12:30:03.666Z,4.30
2023-03-14T12:31:38.921Z,4.18
2023-03-14T12:32:41.594Z,3.83
2023-03-14T12:33:45.004Z,3.22
2023-03-14T12:34:47.421Z,3.80
2023-03-14T12:35:52.219Z,3.35
2023-03-14T12:37:02.634Z,3.40
2023-03-14T12:38:07.721Z,3.03
2023-03-14T12:39:24.794Z,3.77
2023-03-14T12:40:32.901Z,3.50
2023-03-14T12:41:45.425Z,3.10
2023-03-14T12:43:00.811Z,3.78
2023-03-14T12:44:41.563Z,3.05
2023-03-14T12:46:18.618Z,2.90
2023-03-14T12:48:00.636Z,2.45
2023-03-14T12:49:08.482Z,2.47
2023-03-14T12:50:17.204Z,2.90
2023-03-14T12:51:22.656Z,2.72
2023-03-14T12:52:38.697Z,2.30
2023-03-14T12:54:16.475Z,2.30
2023-03-14T12:55:25.532Z,2.65
2023-03-14T12:56:45.028Z,2.40
2023-03-14T12:57:56.544Z,2.08
2023-03-14T12:59:16.839Z,2.25
2023-03-14T13:00:22.536Z,2.13
2023-03-14T13:01:24.789Z,2.30
2023-03-14T13:02:30.826Z,1.90
2023-03-14T13:03:45.180Z,2.50
2023-03-14T13:04:51.480Z,2.23
2023-03-14T13:05:56.247Z,2.38
2023-03-14T13:07:01.699Z,2.47
2023-03-14T13:08:11.281Z,2.58
2023-03-14T13:10:01.381Z,2.60
2023-03-14T13:11:09.260Z,2.28
2023-03-14T13:12:14.442Z,2.75
2023-03-14T13:13:22.956Z,2.90
2023-03-14T13:14:25.233Z,3.33
2023-03-14T13:15:35.316Z,2.78
2023-03-14T13:16:38.758Z,2.80
2023-03-14T13:17:42.529Z,3.67
2023-03-14T13:18:46.994Z,3.05
2023-03-14T13:19:53.493Z,3.05
2023-03-14T13:21:00.739Z,2.95
2023-03-14T13:22:06.196Z,3.22
2023-03-14T13:23:22.925Z,2.65
2023-03-14T13:24:27.134Z,3.42
2023-03-14T13:25:36.800Z,2.80
2023-03-14T13:26:45.065Z,2.97
2023-03-14T13:27:48.043Z,3.10
2023-03-14T13:28:51.500Z,2.90
2023-03-14T13:29:54.462Z,3.80
2023-03-14T13:31:01.512Z,3.50
2023-03-14T13:32:18.882Z,3.30
2023-03-14T13:33:25.053Z,3.50
2023-03-14T13:34:30.499Z,2.90
2023-03-14T13:35:44.425Z,3.50
2023-03-14T13:36:50.169Z,3.45
2023-03-14T13:38:11.222Z,2.75
2023-03-14T13:39:26.128Z,3.27
2023-03-14T13:40:33.343Z,2.83
2023-03-14T13:41:37.154Z,2.90
2023-03-14T13:42:40.947Z,2.85
2023-03-14T13:43:45.954Z,3.30
2023-03-14T13:44:48.227Z,3.10
2023-03-14T13:45:54.044Z,3.05
2023-03-14T13:47:01.949Z,2.90
2023-03-14T13:48:06.282Z,2.70
2023-03-14T13:49:15.154Z,3.15
2023-03-14T13:50:19.238Z,2.90
2023-03-14T13:51:23.712Z,3.08
2023-03-14T13:52:30.573Z,3.38
2023-03-14T13:53:35.005Z,3.08
2023-03-14T13:54:40.095Z,2.95
2023-03-14T13:55:43.318Z,3.55
2023-03-14T13:56:46.325Z,3.13
2023-03-14T13:57:55.597Z,3.00
2023-03-14T13:58:59.370Z,3.05
2023-03-14T14:00:07.677Z,2.90
2023-03-14T14:01:16.712Z,2.70
2023-03-14T14:02:19.441Z,3.30
2023-03-14T14:03:22.688Z,3.47
2023-03-14T14:04:28.226Z,2.35
2023-03-14T14:05:33.314Z,3.00
2023-03-14T14:06:38.336Z,3.25
2023-03-14T14:07:41.105Z,2.90
2023-03-14T14:08:44.589Z,2.40
2023-03-14T14:09:51.305Z,2.15
2023-03-14T14:10:58.466Z,2.00
2023-03-14T14:12:21.260Z,2.40
2023-03-14T14:13:28.215Z,2.05
2023-03-14T14:14:36.670Z,2.30
2023-03-14T14:15:44.364Z,2.58
2023-03-14T14:16:51.786Z,2.38
2023-03-14T14:17:59.193Z,2.03
2023-03-14T14:19:04.012Z,2.42
2023-03-14T14:20:10.141Z,2.05
2023-03-14T14:21:15.816Z,2.08
2023-03-14T14:22:18.447Z,2.00
2023-03-14T14:23:26.412Z,2.07
2023-03-14T14:24:32.619Z,1.92
2023-03-14T14:25:36.270Z,2.10
2023-03-14T14:26:42.821Z,2.33
2023-03-14T14:27:49.581Z,2.30
2023-03-14T14:29:04.322Z,2.35
2023-03-14T14:30:26.597Z,2.60
2023-03-14T14:31:30.328Z,2.70
2023-03-14T14:32:37.167Z,2.50
2023-03-14T14:33:42.539Z,2.60
2023-03-14T14:34:50.700Z,2.60
2023-03-14T14:36:00.271Z,3.03
2023-03-14T14:37:02.704Z,2.67
2023-03-14T14:38:14.734Z,2.30
2023-03-14T14:39:21.361Z,2.10
2023-03-14T14:40:26.027Z,2.10
2023-03-14T14:41:32.055Z,1.90
2023-03-14T14:42:34.801Z,1.80